createdAt,value
2022-11-21T00:01:01.735Z,11.93
2022-11-21T00:06:55.164Z,12.30
2022-11-21T00:12:49.953Z,11.30
2022-11-21T00:18:44.550Z,12.50
2022-11-21T00:24:38.191Z,13.60
2022-11-21T00:30:33.185Z,12.90
2022-11-21T00:36:26.636Z,13.73
2022-11-21T00:42:20.039Z,13.13
2022-11-21T00:48:14.812Z,13.83
2022-11-21T00:54:08.260Z,13.67
2022-11-21T01:00:01.799Z,13.13
2022-11-21T01:06:02.732Z,16.33
2022-11-21T01:11:55.953Z,14.87
2022-11-21T01:17:49.361Z,13.30
2022-11-21T01:23:44.600Z,12.83
2022-11-21T01:29:37.982Z,15.93
2022-11-21T01:35:31.369Z,14.23
2022-11-21T01:41:30.359Z,13.77
2022-11-21T01:47:24.050Z,14.73
2022-11-21T01:53:17.694Z,14.23
2022-11-21T01:59:17.518Z,14.30
2022-11-21T02:05:16.098Z,14.23
2022-11-21T02:11:18.132Z,12.63
2022-11-21T02:17:12.984Z,12.40
2022-11-21T02:23:19.061Z,11.63
2022-11-21T02:29:13.864Z,12.20
2022-11-21T02:35:08.024Z,12.57
2022-11-21T02:41:08.047Z,12.10
2022-11-21T02:47:02.869Z,12.00
2022-11-21T02:52:57.421Z,12.13
2022-11-21T02:58:50.828Z,11.90
2022-11-21T03:04:45.665Z,12.07
2022-11-21T03:10:39.546Z,13.03
2022-11-21T03:16:33.006Z,10.90
2022-11-21T03:22:28.381Z,13.13
2022-11-21T03:28:21.852Z,12.60
2022-11-21T03:34:15.378Z,10.70
2022-11-21T03:40:12.100Z,11.60
2022-11-21T03:46:05.599Z,11.07
2022-11-21T03:51:59.007Z,12.30
2022-11-21T03:57:53.912Z,14.20
2022-11-21T04:03:47.572Z,15.10
2022-11-21T04:09:40.565Z,14.93
2022-11-21T04:15:34.957Z,15.17
2022-11-21T04:21:28.364Z,14.00
2022-11-21T04:27:21.829Z,15.10
2022-11-21T04:33:17.842Z,14.73
2022-11-21T04:39:11.339Z,15.40
2022-11-21T04:45:05.122Z,13.90
2022-11-21T04:51:00.054Z,14.90
2022-11-21T04:56:53.746Z,13.83
2022-11-21T05:02:46.926Z,13.97
2022-11-21T05:08:41.709Z,13.50
2022-11-21T05:14:36.190Z,11.90
2022-11-21T05:20:32.303Z,12.50
2022-11-21T05:26:30.557Z,13.30
2022-11-21T05:32:25.088Z,12.90
2022-11-21T05:38:19.317Z,12.73
2022-11-21T05:44:14.109Z,13.40
2022-11-21T05:50:08.356Z,14.00
2022-11-21T05:56:05.202Z,13.10
2022-11-21T06:02:17.339Z,13.20
2022-11-21T06:08:10.782Z,13.07
2022-11-21T06:14:04.220Z,12.77
2022-11-21T06:19:59.042Z,15.37
2022-11-21T06:25:58.151Z,16.10
2022-11-21T06:31:51.547Z,16.53
2022-11-21T06:37:50.789Z,15.50
2022-11-21T06:43:47.649Z,13.37
2022-11-21T06:49:41.089Z,15.80
2022-11-21T06:55:35.871Z,14.93
2022-11-21T07:01:29.475Z,12.63
2022-11-21T07:07:22.942Z,14.07
2022-11-21T07:13:23.761Z,14.50
2022-11-21T07:19:17.209Z,13.33
2022-11-21T07:25:11.218Z,14.60
2022-11-21T07:31:11.891Z,14.13
2022-11-21T07:37:07.501Z,13.07
2022-11-21T07:43:06.604Z,13.83
2022-11-21T07:49:04.370Z,13.67
2022-11-21T07:54:58.035Z,13.77
2022-11-21T08:00:51.447Z,12.93
2022-11-21T08:06:46.259Z,13.03
2022-11-21T08:12:39.737Z,13.77
2022-11-21T08:18:33.431Z,12.20
2022-11-21T08:24:28.056Z,12.10
2022-11-21T08:30:21.588Z,11.73
2022-11-21T08:36:15.019Z,11.07
2022-11-21T08:42:09.867Z,14.00
2022-11-21T08:48:03.786Z,14.00
2022-11-21T08:53:57.234Z,12.70
2022-11-21T08:59:52.046Z,12.97
2022-11-21T09:05:46.024Z,11.10
2022-11-21T09:11:39.487Z,11.27
2022-11-21T09:17:51.968Z,11.10
2022-11-21T09:23:46.832Z,12.07
2022-11-21T09:29:40.071Z,11.83
2022-11-21T09:35:35.081Z,11.90
2022-11-21T09:41:51.548Z,11.93
2022-11-21T09:47:48.062Z,12.20
2022-11-21T09:53:54.839Z,11.73
2022-11-21T09:59:48.478Z,11.33
2022-11-21T10:05:48.738Z,11.90
2022-11-21T10:12:07.477Z,12.27
2022-11-21T10:18:25.710Z,11.00
2022-11-21T10:24:33.227Z,10.90
2022-11-21T10:30:28.064Z,12.67
2022-11-21T10:36:29.143Z,11.63
2022-11-21T10:42:33.632Z,11.20
2022-11-21T10:48:28.453Z,10.77
2022-11-21T10:54:33.456Z,12.00
2022-11-21T11:00:27.673Z,11.63
2022-11-21T11:06:29.703Z,11.07
2022-11-21T11:12:47.380Z,12.60
2022-11-21T11:18:43.150Z,11.53
2022-11-21T11:24:38.020Z,10.60
2022-11-21T11:30:39.310Z,10.80
2022-11-21T11:36:40.584Z,10.20
2022-11-21T11:43:18.131Z,11.20
2022-11-21T11:49:20.907Z,11.23
2022-11-21T11:55:19.817Z,11.90
2022-11-21T12:01:19.814Z,10.40
2022-11-21T12:08:19.946Z,9.77
2022-11-21T12:13:35.253Z,10.30
2022-11-21T12:19:30.591Z,9.70
2022-11-21T12:25:30.030Z,8.60
2022-11-21T12:31:28.302Z,9.27
2022-11-21T12:37:34.576Z,9.03
2022-11-21T12:43:38.580Z,8.87
2022-11-21T12:49:58.136Z,9.27
2022-11-21T12:55:59.071Z,7.60
2022-11-21T13:02:00.953Z,7.40
2022-11-21T13:08:01.542Z,7.13
2022-11-21T13:14:06.157Z,7.00
2022-11-21T13:20:02.369Z,7.60
2022-11-21T13:25:55.989Z,6.97
2022-11-21T13:31:50.870Z,5.70
2022-11-21T13:38:04.428Z,6.60
2022-11-21T13:44:27.608Z,6.30
2022-11-21T13:50:35.876Z,6.63
2022-11-21T13:57:02.304Z,6.47
2022-11-21T14:03:18.131Z,5.30
2022-11-21T14:09:37.220Z,6.50
2022-11-21T14:15:39.417Z,6.53
2022-11-21T14:21:35.165Z,6.80
2022-11-21T14:27:34.445Z,6.90
2022-11-21T14:33:30.573Z,7.10
2022-11-21T14:39:38.785Z,6.93
2022-11-21T14:45:36.758Z,6.60
2022-11-21T14:51:30.713Z,5.77
2022-11-21T14:57:27.649Z,6.70
2022-11-21T15:03:24.393Z,6.80
2022-11-21T15:15:34.804Z,6.53
2022-11-21T15:21:29.941Z,7.60
2022-11-21T15:27:34.155Z,6.43
2022-11-21T15:33:27.944Z,6.73
2022-11-21T15:39:24.139Z,7.70
2022-11-21T15:45:27.248Z,8.93
2022-11-21T15:51:37.824Z,8.47
2022-11-21T15:57:37.018Z,6.60
2022-11-21T16:03:34.934Z,7.17
2022-11-21T16:09:30.026Z,7.43
2022-11-21T16:15:25.588Z,9.67
2022-11-21T16:21:19.440Z,8.13
2022-11-21T16:27:12.950Z,7.20
2022-11-21T16:33:07.414Z,7.07
2022-11-21T16:39:08.733Z,6.80
2022-11-21T16:45:02.630Z,7.00
2022-11-21T16:50:57.508Z,6.10
2022-11-21T16:56:50.936Z,7.10
2022-11-21T17:02:44.358Z,7.00
2022-11-21T17:08:39.566Z,6.40
2022-11-21T17:14:33.227Z,8.00
2022-11-21T17:20:26.889Z,7.90
2022-11-21T17:26:23.405Z,9.37
2022-11-21T17:32:17.158Z,9.40
2022-11-21T17:38:10.575Z,9.67
2022-11-21T17:44:05.462Z,11.10
2022-11-21T17:50:04.111Z,15.67
2022-11-21T17:56:00.293Z,14.00
2022-11-21T18:01:55.941Z,12.97
2022-11-21T18:07:50.352Z,14.30
2022-11-21T18:13:44.297Z,15.00
2022-11-21T18:19:39.115Z,15.90
2022-11-21T18:25:35.773Z,16.87
2022-11-21T18:31:30.368Z,15.33
2022-11-21T18:37:25.216Z,15.80
2022-11-21T18:43:18.718Z,17.33
2022-11-21T18:49:12.251Z,16.47
2022-11-21T18:55:08.173Z,15.30
2022-11-21T19:01:02.457Z,15.40
2022-11-21T19:06:56.470Z,14.13
2022-11-21T19:12:51.251Z,13.00
2022-11-21T19:18:54.999Z,13.27
2022-11-21T19:24:58.614Z,12.47
2022-11-21T19:30:53.408Z,11.33
2022-11-21T19:36:46.960Z,13.60
2022-11-21T19:42:40.643Z,12.10
2022-11-21T19:48:35.157Z,11.63
2022-11-21T19:54:28.846Z,12.30
2022-11-21T20:00:25.660Z,15.50
2022-11-21T20:06:22.957Z,12.30
2022-11-21T20:12:15.962Z,12.87
2022-11-21T20:18:09.492Z,11.40
2022-11-21T20:24:05.136Z,11.17
2022-11-21T20:29:58.539Z,10.87
2022-11-21T20:35:51.952Z,11.10
2022-11-21T20:41:47.625Z,12.57
2022-11-21T20:47:40.719Z,12.30
2022-11-21T20:53:51.404Z,11.40
2022-11-21T20:59:47.102Z,12.83
2022-11-21T21:05:40.729Z,12.33
2022-11-21T21:17:48.976Z,11.50
2022-11-21T21:23:45.607Z,12.50
2022-11-21T21:29:39.072Z,11.77
2022-11-21T21:35:34.207Z,12.63
2022-11-21T21:41:29.634Z,12.07
2022-11-21T21:47:23.586Z,12.20
2022-11-21T21:53:18.389Z,11.70
2022-11-21T21:59:11.804Z,12.50
2022-11-21T22:05:05.704Z,11.13
2022-11-21T22:11:05.211Z,10.53
2022-11-21T22:16:58.660Z,11.27
2022-11-21T22:22:56.281Z,10.50
2022-11-21T22:28:54.561Z,10.73
2022-11-21T22:34:47.964Z,10.50
2022-11-21T22:40:41.464Z,9.53
2022-11-21T22:46:36.823Z,9.40
2022-11-21T22:52:30.341Z,10.50
2022-11-21T22:58:23.863Z,9.93
2022-11-21T23:04:18.786Z,9.63
2022-11-21T23:10:13.135Z,10.23
2022-11-21T23:16:08.261Z,9.83
2022-11-21T23:22:02.698Z,9.80
2022-11-21T23:27:56.231Z,10.90
2022-11-21T23:33:49.628Z,11.30
2022-11-21T23:39:44.426Z,10.00
2022-11-21T23:45:37.904Z,10.60
2022-11-21T23:51:31.308Z,11.03
2022-11-21T23:57:26.107Z,11.63
